createdAt,value
2017-12-12T00:04:15.670Z,13.90
2017-12-12T00:09:17.352Z,15.90
2017-12-12T00:14:19.067Z,14.43
2017-12-12T00:19:20.774Z,19.13
2017-12-12T00:24:22.506Z,12.60
2017-12-12T00:29:24.321Z,17.33
2017-12-12T00:34:26.808Z,18.67
2017-12-12T00:39:28.541Z,29.20
2017-12-12T00:44:30.247Z,48.60
2017-12-12T00:49:32.065Z,46.17
2017-12-12T00:54:33.884Z,51.37
2017-12-12T00:59:35.596Z,48.03
2017-12-12T01:04:38.117Z,53.47
2017-12-12T01:09:40.585Z,55.00
2017-12-12T01:14:45.060Z,52.70
2017-12-12T01:19:47.541Z,51.20
2017-12-12T01:24:49.251Z,48.40
2017-12-12T01:29:50.945Z,66.07
2017-12-12T01:34:53.199Z,49.20
2017-12-12T01:39:55.028Z,52.67
2017-12-12T01:44:56.841Z,50.00
2017-12-12T01:49:58.617Z,45.93
2017-12-12T01:55:00.583Z,51.17
2017-12-12T02:00:03.557Z,46.87
2017-12-12T02:05:05.295Z,44.20
2017-12-12T02:10:07.493Z,47.97
2017-12-12T02:15:09.359Z,46.57
2017-12-12T02:20:11.165Z,36.17
2017-12-12T02:25:12.945Z,34.70
2017-12-12T02:30:14.721Z,29.57
2017-12-12T02:35:17.205Z,32.53
2017-12-12T02:40:19.014Z,27.90
2017-12-12T02:45:20.814Z,18.90
2017-12-12T02:50:22.613Z,23.77
2017-12-12T02:55:24.482Z,20.30
2017-12-12T03:00:27.259Z,20.63
2017-12-12T03:05:29.769Z,20.70
2017-12-12T03:10:32.835Z,20.33
2017-12-12T03:15:34.618Z,21.77
2017-12-12T03:20:37.146Z,21.37
2017-12-12T03:25:38.932Z,19.30
2017-12-12T03:30:40.718Z,23.47
2017-12-12T03:35:42.559Z,22.93
2017-12-12T03:40:44.343Z,29.57
2017-12-12T03:45:46.167Z,25.07
2017-12-12T03:50:47.939Z,29.83
2017-12-12T03:55:50.489Z,27.00
2017-12-12T04:00:53.194Z,26.03
2017-12-12T04:05:54.978Z,25.50
2017-12-12T04:10:57.501Z,22.37
2017-12-12T04:15:59.273Z,21.30
2017-12-12T04:21:01.150Z,22.40
2017-12-12T04:26:02.964Z,18.70
2017-12-12T04:31:04.795Z,17.67
2017-12-12T04:36:06.603Z,16.53
2017-12-12T04:41:08.526Z,16.87
2017-12-12T04:46:10.376Z,16.67
2017-12-12T04:51:12.246Z,14.10
2017-12-12T04:56:14.959Z,16.70
2017-12-12T05:01:16.773Z,12.93
2017-12-12T05:06:18.541Z,17.60
2017-12-12T05:11:20.373Z,15.17
2017-12-12T05:16:22.159Z,14.57
2017-12-12T05:21:23.960Z,17.43
2017-12-12T05:26:25.857Z,17.20
2017-12-12T05:31:29.621Z,15.83
2017-12-12T05:36:31.412Z,17.33
2017-12-12T05:41:33.137Z,16.90
2017-12-12T05:46:35.432Z,16.23
2017-12-12T05:51:38.154Z,16.13
2017-12-12T05:56:39.949Z,14.77
2017-12-12T06:01:41.685Z,19.43
2017-12-12T06:06:44.373Z,17.33
2017-12-12T06:11:46.153Z,17.43
2017-12-12T06:16:47.940Z,14.83
2017-12-12T06:21:49.713Z,13.63
2017-12-12T06:26:51.490Z,14.00
2017-12-12T06:31:53.655Z,17.60
2017-12-12T06:36:55.520Z,16.40
2017-12-12T06:41:57.283Z,17.53
2017-12-12T06:46:59.040Z,20.57
2017-12-12T06:52:01.730Z,17.80
2017-12-12T06:57:03.465Z,22.50
2017-12-12T07:02:05.201Z,19.90
2017-12-12T07:07:06.980Z,21.73
2017-12-12T07:12:08.725Z,22.70
2017-12-12T07:17:10.510Z,20.93
2017-12-12T07:22:12.265Z,21.40
2017-12-12T07:27:14.027Z,24.10
2017-12-12T07:32:15.754Z,32.53
2017-12-12T07:37:18.206Z,22.40
2017-12-12T07:42:19.917Z,24.73
2017-12-12T07:47:21.622Z,25.30
2017-12-12T07:52:23.341Z,24.07
2017-12-12T07:57:25.097Z,23.63
2017-12-12T08:02:26.860Z,22.00
2017-12-12T08:07:29.319Z,29.87
2017-12-12T08:12:31.033Z,21.43
2017-12-12T08:17:32.797Z,19.47
2017-12-12T08:22:34.687Z,23.20
2017-12-12T08:27:37.264Z,19.27
2017-12-12T08:32:39.014Z,21.50
2017-12-12T08:37:40.780Z,26.33
2017-12-12T08:42:43.230Z,21.80
2017-12-12T08:47:45.020Z,16.50
2017-12-12T08:52:46.821Z,16.80
2017-12-12T08:57:48.578Z,20.80
2017-12-12T09:02:50.308Z,19.90
2017-12-12T09:07:52.072Z,23.30
2017-12-12T09:12:53.835Z,18.80
2017-12-12T09:17:55.648Z,18.83
2017-12-12T09:22:57.351Z,19.27
2017-12-12T09:27:59.094Z,21.50
2017-12-12T09:33:01.602Z,14.63
2017-12-12T09:38:03.324Z,15.87
2017-12-12T09:43:05.056Z,17.93
2017-12-12T09:48:06.824Z,21.30
2017-12-12T09:53:08.635Z,17.67
2017-12-12T09:58:10.420Z,16.10
2017-12-12T10:03:12.174Z,24.50
2017-12-12T10:08:13.939Z,21.30
2017-12-12T10:13:15.655Z,15.83
2017-12-12T10:18:17.413Z,16.83
2017-12-12T10:23:19.171Z,20.43
2017-12-12T10:28:20.863Z,15.07
2017-12-12T10:33:22.638Z,18.40
2017-12-12T10:38:24.436Z,19.40
2017-12-12T10:43:26.213Z,17.37
2017-12-12T10:48:27.998Z,16.53
2017-12-12T10:53:30.554Z,18.10
2017-12-12T10:58:32.341Z,14.20
2017-12-12T11:03:34.147Z,10.70
2017-12-12T11:08:35.896Z,11.40
2017-12-12T11:13:37.656Z,11.47
2017-12-12T11:18:39.397Z,9.47
2017-12-12T11:23:41.159Z,9.50
2017-12-12T11:28:42.936Z,8.27
2017-12-12T11:33:44.694Z,6.60
2017-12-12T11:38:46.407Z,8.83
2017-12-12T11:43:48.090Z,6.80
2017-12-12T11:48:49.785Z,7.40
2017-12-12T11:53:51.577Z,7.10
2017-12-12T11:58:53.417Z,5.90
2017-12-12T12:03:55.191Z,6.73
2017-12-12T12:08:56.925Z,7.10
2017-12-12T12:13:58.693Z,5.87
2017-12-12T12:19:00.444Z,6.43
2017-12-12T12:24:02.260Z,9.53
2017-12-12T12:29:04.852Z,6.20
2017-12-12T12:34:06.646Z,6.77
2017-12-12T12:39:08.432Z,6.33
2017-12-12T12:44:11.843Z,6.00
2017-12-12T12:49:14.575Z,5.87
2017-12-12T12:54:17.110Z,5.30
2017-12-12T12:59:20.868Z,5.23
2017-12-12T13:04:23.298Z,4.37
2017-12-12T13:09:26.957Z,4.40
2017-12-12T13:14:29.663Z,3.77
2017-12-12T13:19:32.433Z,3.90
2017-12-12T13:24:34.412Z,4.00
2017-12-12T13:29:37.026Z,3.90
2017-12-12T13:34:39.626Z,4.23
2017-12-12T13:39:41.578Z,13.97
2017-12-12T13:44:43.383Z,5.10
2017-12-12T13:49:45.097Z,4.70
2017-12-12T13:54:47.689Z,4.40
2017-12-12T13:59:49.378Z,4.00
2017-12-12T14:04:51.090Z,4.03
2017-12-12T14:09:52.830Z,4.37
2017-12-12T14:14:54.593Z,4.50
2017-12-12T14:19:56.359Z,4.60
2017-12-12T14:24:58.090Z,4.00
2017-12-12T14:29:59.894Z,3.50
2017-12-12T14:35:01.634Z,3.40
2017-12-12T14:40:03.510Z,3.00
2017-12-12T14:45:05.954Z,3.80
2017-12-12T14:50:07.684Z,4.10
2017-12-12T14:55:09.486Z,4.03
2017-12-12T15:00:11.378Z,4.90
2017-12-12T15:05:13.101Z,7.10
2017-12-12T15:10:14.954Z,7.00
2017-12-12T15:15:16.762Z,7.03
2017-12-12T15:20:18.462Z,8.80
2017-12-12T15:25:20.173Z,10.50
2017-12-12T15:30:21.947Z,13.23
2017-12-12T15:35:23.745Z,11.60
2017-12-12T15:40:26.210Z,13.63
2017-12-12T15:45:28.110Z,12.40
2017-12-12T15:50:29.844Z,16.87
2017-12-12T15:55:32.400Z,14.30
2017-12-12T16:00:34.192Z,18.17
2017-12-12T16:05:35.934Z,20.60
2017-12-12T16:10:37.674Z,22.23
2017-12-12T16:15:39.428Z,21.20
2017-12-12T16:20:41.177Z,23.77
2017-12-12T16:25:44.165Z,27.07
2017-12-12T16:30:45.919Z,29.93
2017-12-12T16:35:47.670Z,27.50
2017-12-12T16:40:49.500Z,31.10
2017-12-12T16:45:51.726Z,27.40
2017-12-12T16:50:53.466Z,35.83
2017-12-12T16:55:55.420Z,35.73
2017-12-12T17:00:57.136Z,30.33
2017-12-12T17:05:58.894Z,26.67
2017-12-12T17:11:02.018Z,33.67
2017-12-12T17:16:03.768Z,34.03
2017-12-12T17:21:05.838Z,26.20
2017-12-12T17:26:07.928Z,31.20
2017-12-12T17:31:10.063Z,30.50
2017-12-12T17:36:11.828Z,30.97
2017-12-12T17:41:13.986Z,27.37
2017-12-12T17:46:15.743Z,29.13
2017-12-12T17:51:17.491Z,30.70
2017-12-12T17:56:19.278Z,32.20
2017-12-12T18:01:20.978Z,31.80
2017-12-12T18:06:23.891Z,28.27
2017-12-12T18:11:25.718Z,33.50
2017-12-12T18:16:27.449Z,26.60
2017-12-12T18:21:29.192Z,26.70
2017-12-12T18:26:30.919Z,29.37
2017-12-12T18:31:32.695Z,31.03
2017-12-12T18:36:34.392Z,36.37
2017-12-12T18:41:36.423Z,29.93
2017-12-12T18:46:38.112Z,34.70
2017-12-12T18:51:40.842Z,32.27
2017-12-12T18:56:42.574Z,34.43
2017-12-12T19:01:48.947Z,34.23
2017-12-12T19:06:51.502Z,38.07
2017-12-12T19:11:53.542Z,38.47
2017-12-12T19:16:55.294Z,36.90
2017-12-12T19:21:57.107Z,35.90
2017-12-12T19:26:58.940Z,29.63
2017-12-12T19:32:00.743Z,40.13
2017-12-12T19:37:02.594Z,38.03
2017-12-12T19:42:04.398Z,33.70
2017-12-12T19:47:06.174Z,42.20
2017-12-12T19:52:07.933Z,36.93
2017-12-12T19:57:10.510Z,35.73
2017-12-12T20:02:12.310Z,35.13
2017-12-12T20:07:14.158Z,38.73
2017-12-12T20:12:16.754Z,40.83
2017-12-12T20:17:19.888Z,36.47
2017-12-12T20:22:21.691Z,36.20
2017-12-12T20:27:24.211Z,43.80
2017-12-12T20:32:25.959Z,33.93
2017-12-12T20:37:27.703Z,32.03
2017-12-12T20:42:29.437Z,35.10
2017-12-12T20:47:31.158Z,38.20
2017-12-12T20:52:32.894Z,34.30
2017-12-12T20:57:35.542Z,39.93
2017-12-12T21:02:37.246Z,36.57
2017-12-12T21:07:39.015Z,31.63
2017-12-12T21:12:40.771Z,35.10
2017-12-12T21:17:42.539Z,34.20
2017-12-12T21:22:45.009Z,40.27
2017-12-12T21:27:46.757Z,35.27
2017-12-12T21:32:48.570Z,31.07
2017-12-12T21:37:50.493Z,29.50
2017-12-12T21:42:52.528Z,31.20
2017-12-12T21:48:01.468Z,32.70
2017-12-12T21:53:03.370Z,33.17
2017-12-12T21:58:05.380Z,36.17
2017-12-12T22:03:07.455Z,42.87
2017-12-12T22:08:09.172Z,37.07
2017-12-12T22:13:11.042Z,42.77
2017-12-12T22:18:13.553Z,45.07
2017-12-12T22:23:16.048Z,44.73
2017-12-12T22:28:17.796Z,38.47
2017-12-12T22:33:19.536Z,42.60
2017-12-12T22:38:21.842Z,43.80
2017-12-12T22:43:23.580Z,45.00
2017-12-12T22:48:25.364Z,47.57
2017-12-12T22:53:27.169Z,50.00
2017-12-12T22:58:28.933Z,48.30
2017-12-12T23:03:30.814Z,54.80
2017-12-12T23:08:32.642Z,54.10
2017-12-12T23:13:34.355Z,50.77
2017-12-12T23:18:36.105Z,49.30
2017-12-12T23:23:38.204Z,53.47
2017-12-12T23:28:40.337Z,43.03
2017-12-12T23:33:42.105Z,40.90
2017-12-12T23:38:44.578Z,41.23
2017-12-12T23:43:46.406Z,43.27
2017-12-12T23:48:48.339Z,33.93
2017-12-12T23:53:50.120Z,36.87
2017-12-12T23:58:52.719Z,36.37
